sensor_id;sensor_type;location;lat;lon;timestamp;P1;durP1;ratioP1;P2;durP2;ratioP2
19291;SDS011;9779;51.756;7.450;2022-08-01T00:00:34;7.13;;;6.47;;
19291;SDS011;9779;51.756;7.450;2022-08-01T00:03:00;9.27;;;7.97;;
19291;SDS011;9779;51.756;7.450;2022-08-01T00:05:25;12.70;;;6.97;;
19291;SDS011;9779;51.756;7.450;2022-08-01T00:07:51;8.83;;;7.17;;
19291;SDS011;9779;51.756;7.450;2022-08-01T00:10:17;10.73;;;7.40;;
19291;SDS011;9779;51.756;7.450;2022-08-01T00:12:43;7.80;;;7.00;;
19291;SDS011;9779;51.756;7.450;2022-08-01T00:15:10;7.93;;;7.33;;
19291;SDS011;9779;51.756;7.450;2022-08-01T00:17:36;13.03;;;7.50;;
19291;SDS011;9779;51.756;7.450;2022-08-01T00:20:03;8.30;;;7.43;;
19291;SDS011;9779;51.756;7.450;2022-08-01T00:22:31;9.27;;;8.27;;
19291;SDS011;9779;51.756;7.450;2022-08-01T00:24:57;11.13;;;7.60;;
19291;SDS011;9779;51.756;7.450;2022-08-01T00:27:23;8.40;;;7.50;;
19291;SDS011;9779;51.756;7.450;2022-08-01T00:29:48;8.13;;;7.40;;
19291;SDS011;9779;51.756;7.450;2022-08-01T00:32:14;8.47;;;7.87;;
19291;SDS011;9779;51.756;7.450;2022-08-01T00:34:40;11.10;;;8.23;;
19291;SDS011;9779;51.756;7.450;2022-08-01T00:37:05;11.43;;;7.90;;
19291;SDS011;9779;51.756;7.450;2022-08-01T00:39:31;14.60;;;7.73;;
19291;SDS011;9779;51.756;7.450;2022-08-01T00:41:58;8.90;;;8.10;;
19291;SDS011;9779;51.756;7.450;2022-08-01T00:44:24;11.20;;;8.40;;
19291;SDS011;9779;51.756;7.450;2022-08-01T00:46:50;18.93;;;8.60;;
19291;SDS011;9779;51.756;7.450;2022-08-01T00:49:15;12.47;;;9.07;;
19291;SDS011;9779;51.756;7.450;2022-08-01T00:51:41;9.77;;;8.90;;
19291;SDS011;9779;51.756;7.450;2022-08-01T00:54:07;12.00;;;9.93;;
19291;SDS011;9779;51.756;7.450;2022-08-01T00:56:33;11.10;;;8.93;;
19291;SDS011;9779;51.756;7.450;2022-08-01T00:58:58;8.83;;;8.03;;
19291;SDS011;9779;51.756;7.450;2022-08-01T01:01:24;14.67;;;9.03;;
19291;SDS011;9779;51.756;7.450;2022-08-01T01:03:51;11.03;;;8.47;;
19291;SDS011;9779;51.756;7.450;2022-08-01T01:06:28;14.00;;;8.77;;
19291;SDS011;9779;51.756;7.450;2022-08-01T01:09:17;12.30;;;8.63;;
19291;SDS011;9779;51.756;7.450;2022-08-01T01:15:06;13.07;;;8.50;;
19291;SDS011;9779;51.756;7.450;2022-08-01T01:17:41;9.37;;;8.57;;
19291;SDS011;9779;51.756;7.450;2022-08-01T01:20:12;11.33;;;8.83;;
19291;SDS011;9779;51.756;7.450;2022-08-01T01:25:23;9.43;;;8.47;;
19291;SDS011;9779;51.756;7.450;2022-08-01T01:30:34;9.97;;;9.03;;
19291;SDS011;9779;51.756;7.450;2022-08-01T01:33:02;12.07;;;8.77;;
19291;SDS011;9779;51.756;7.450;2022-08-01T01:35:38;10.23;;;9.23;;
19291;SDS011;9779;51.756;7.450;2022-08-01T01:38:14;9.37;;;8.40;;
19291;SDS011;9779;51.756;7.450;2022-08-01T01:40:45;8.63;;;8.13;;
19291;SDS011;9779;51.756;7.450;2022-08-01T01:43:12;9.20;;;8.40;;
19291;SDS011;9779;51.756;7.450;2022-08-01T01:45:40;9.03;;;7.60;;
19291;SDS011;9779;51.756;7.450;2022-08-01T01:48:09;8.00;;;7.33;;
19291;SDS011;9779;51.756;7.450;2022-08-01T01:50:37;8.57;;;7.87;;
19291;SDS011;9779;51.756;7.450;2022-08-01T01:53:04;7.90;;;7.17;;
19291;SDS011;9779;51.756;7.450;2022-08-01T01:55:31;7.57;;;6.97;;
19291;SDS011;9779;51.756;7.450;2022-08-01T01:57:59;8.20;;;7.40;;
19291;SDS011;9779;51.756;7.450;2022-08-01T02:00:26;8.10;;;7.33;;
19291;SDS011;9779;51.756;7.450;2022-08-01T02:02:54;8.27;;;7.30;;
19291;SDS011;9779;51.756;7.450;2022-08-01T02:05:21;10.27;;;7.57;;
19291;SDS011;9779;51.756;7.450;2022-08-01T02:07:49;7.67;;;7.00;;
19291;SDS011;9779;51.756;7.450;2022-08-01T02:10:17;7.97;;;7.27;;
19291;SDS011;9779;51.756;7.450;2022-08-01T02:12:43;7.20;;;6.70;;
19291;SDS011;9779;51.756;7.450;2022-08-01T02:15:11;8.17;;;7.37;;
19291;SDS011;9779;51.756;7.450;2022-08-01T02:17:43;7.17;;;6.67;;
19291;SDS011;9779;51.756;7.450;2022-08-01T02:20:11;7.37;;;6.73;;
19291;SDS011;9779;51.756;7.450;2022-08-01T02:22:46;8.00;;;7.40;;
19291;SDS011;9779;51.756;7.450;2022-08-01T02:28:17;7.63;;;7.07;;
19291;SDS011;9779;51.756;7.450;2022-08-01T02:30:50;8.00;;;7.10;;
19291;SDS011;9779;51.756;7.450;2022-08-01T02:33:20;7.83;;;7.13;;
19291;SDS011;9779;51.756;7.450;2022-08-01T02:35:50;9.80;;;7.00;;
19291;SDS011;9779;51.756;7.450;2022-08-01T02:38:20;7.03;;;6.43;;
19291;SDS011;9779;51.756;7.450;2022-08-01T02:40:50;7.47;;;7.00;;
19291;SDS011;9779;51.756;7.450;2022-08-01T02:43:18;10.47;;;6.93;;
19291;SDS011;9779;51.756;7.450;2022-08-01T02:45:51;6.10;;;5.70;;
19291;SDS011;9779;51.756;7.450;2022-08-01T02:48:21;6.87;;;6.27;;
19291;SDS011;9779;51.756;7.450;2022-08-01T02:50:51;6.53;;;6.03;;
19291;SDS011;9779;51.756;7.450;2022-08-01T02:53:20;13.13;;;7.00;;
19291;SDS011;9779;51.756;7.450;2022-08-01T02:55:48;7.03;;;6.53;;
19291;SDS011;9779;51.756;7.450;2022-08-01T02:58:16;6.53;;;6.03;;
19291;SDS011;9779;51.756;7.450;2022-08-01T03:00:43;7.47;;;6.77;;
19291;SDS011;9779;51.756;7.450;2022-08-01T03:03:10;8.33;;;6.20;;
19291;SDS011;9779;51.756;7.450;2022-08-01T03:05:37;7.10;;;6.53;;
19291;SDS011;9779;51.756;7.450;2022-08-01T03:08:05;7.30;;;6.60;;
19291;SDS011;9779;51.756;7.450;2022-08-01T03:10:32;7.57;;;6.43;;
19291;SDS011;9779;51.756;7.450;2022-08-01T03:13:01;6.97;;;6.30;;
19291;SDS011;9779;51.756;7.450;2022-08-01T03:15:31;6.87;;;5.70;;
19291;SDS011;9779;51.756;7.450;2022-08-01T03:17:58;6.83;;;6.23;;
19291;SDS011;9779;51.756;7.450;2022-08-01T03:20:25;6.53;;;5.93;;
19291;SDS011;9779;51.756;7.450;2022-08-01T03:22:54;7.47;;;6.83;;
19291;SDS011;9779;51.756;7.450;2022-08-01T03:25:22;6.37;;;5.80;;
19291;SDS011;9779;51.756;7.450;2022-08-01T03:27:53;6.87;;;6.17;;
19291;SDS011;9779;51.756;7.450;2022-08-01T03:30:22;11.93;;;6.37;;
19291;SDS011;9779;51.756;7.450;2022-08-01T03:32:48;6.77;;;6.37;;
19291;SDS011;9779;51.756;7.450;2022-08-01T03:35:14;6.47;;;5.93;;
19291;SDS011;9779;51.756;7.450;2022-08-01T03:37:47;6.83;;;6.30;;
19291;SDS011;9779;51.756;7.450;2022-08-01T03:40:38;6.47;;;5.93;;
19291;SDS011;9779;51.756;7.450;2022-08-01T03:43:02;6.50;;;5.90;;
19291;SDS011;9779;51.756;7.450;2022-08-01T03:45:34;6.10;;;5.70;;
19291;SDS011;9779;51.756;7.450;2022-08-01T03:48:06;6.30;;;5.77;;
19291;SDS011;9779;51.756;7.450;2022-08-01T03:50:39;8.07;;;5.60;;
19291;SDS011;9779;51.756;7.450;2022-08-01T03:53:07;7.03;;;6.03;;
19291;SDS011;9779;51.756;7.450;2022-08-01T03:55:35;5.87;;;5.33;;
19291;SDS011;9779;51.756;7.450;2022-08-01T03:58:03;6.17;;;5.63;;
19291;SDS011;9779;51.756;7.450;2022-08-01T04:00:30;6.13;;;5.50;;
19291;SDS011;9779;51.756;7.450;2022-08-01T04:02:56;10.67;;;6.27;;
19291;SDS011;9779;51.756;7.450;2022-08-01T04:05:22;7.23;;;5.67;;
19291;SDS011;9779;51.756;7.450;2022-08-01T04:07:49;6.93;;;5.60;;
19291;SDS011;9779;51.756;7.450;2022-08-01T04:10:20;6.70;;;5.43;;
19291;SDS011;9779;51.756;7.450;2022-08-01T04:12:47;4.70;;;4.40;;
19291;SDS011;9779;51.756;7.450;2022-08-01T04:15:13;9.80;;;5.73;;
19291;SDS011;9779;51.756;7.450;2022-08-01T04:17:39;5.30;;;4.87;;
19291;SDS011;9779;51.756;7.450;2022-08-01T04:20:05;5.70;;;5.17;;
19291;SDS011;9779;51.756;7.450;2022-08-01T04:22:30;5.60;;;5.10;;
19291;SDS011;9779;51.756;7.450;2022-08-01T04:24:57;5.90;;;5.43;;
19291;SDS011;9779;51.756;7.450;2022-08-01T04:27:28;6.27;;;5.67;;
19291;SDS011;9779;51.756;7.450;2022-08-01T04:29:58;5.53;;;5.13;;
19291;SDS011;9779;51.756;7.450;2022-08-01T04:32:25;5.33;;;4.93;;
19291;SDS011;9779;51.756;7.450;2022-08-01T04:34:55;8.50;;;5.40;;
19291;SDS011;9779;51.756;7.450;2022-08-01T04:37:23;6.80;;;6.27;;
19291;SDS011;9779;51.756;7.450;2022-08-01T04:39:51;6.37;;;5.80;;
19291;SDS011;9779;51.756;7.450;2022-08-01T04:42:18;5.97;;;5.47;;
19291;SDS011;9779;51.756;7.450;2022-08-01T04:44:44;5.67;;;5.17;;
19291;SDS011;9779;51.756;7.450;2022-08-01T04:47:10;6.17;;;5.60;;
19291;SDS011;9779;51.756;7.450;2022-08-01T04:49:37;5.80;;;5.30;;
19291;SDS011;9779;51.756;7.450;2022-08-01T04:52:03;6.10;;;5.57;;
19291;SDS011;9779;51.756;7.450;2022-08-01T04:54:31;6.67;;;5.93;;
19291;SDS011;9779;51.756;7.450;2022-08-01T04:56:59;5.83;;;5.43;;
19291;SDS011;9779;51.756;7.450;2022-08-01T04:59:28;9.97;;;6.17;;
19291;SDS011;9779;51.756;7.450;2022-08-01T05:02:15;6.50;;;5.93;;
19291;SDS011;9779;51.756;7.450;2022-08-01T05:04:43;6.53;;;5.53;;
19291;SDS011;9779;51.756;7.450;2022-08-01T05:07:09;7.03;;;6.47;;
19291;SDS011;9779;51.756;7.450;2022-08-01T05:09:36;6.43;;;6.03;;
19291;SDS011;9779;51.756;7.450;2022-08-01T05:12:03;6.70;;;6.10;;
19291;SDS011;9779;51.756;7.450;2022-08-01T05:14:30;6.63;;;6.23;;
19291;SDS011;9779;51.756;7.450;2022-08-01T05:16:57;6.17;;;5.40;;
19291;SDS011;9779;51.756;7.450;2022-08-01T05:19:24;7.17;;;6.67;;
19291;SDS011;9779;51.756;7.450;2022-08-01T05:21:51;5.83;;;5.37;;
19291;SDS011;9779;51.756;7.450;2022-08-01T05:24:17;6.27;;;5.67;;
19291;SDS011;9779;51.756;7.450;2022-08-01T05:26:42;6.83;;;4.93;;
19291;SDS011;9779;51.756;7.450;2022-08-01T05:29:09;7.77;;;5.53;;
19291;SDS011;9779;51.756;7.450;2022-08-01T05:31:34;6.03;;;5.63;;
19291;SDS011;9779;51.756;7.450;2022-08-01T05:34:01;5.70;;;5.20;;
19291;SDS011;9779;51.756;7.450;2022-08-01T05:36:27;6.13;;;5.57;;
19291;SDS011;9779;51.756;7.450;2022-08-01T05:38:53;5.17;;;4.70;;
19291;SDS011;9779;51.756;7.450;2022-08-01T05:41:19;5.40;;;5.00;;
19291;SDS011;9779;51.756;7.450;2022-08-01T05:43:44;7.07;;;5.00;;
19291;SDS011;9779;51.756;7.450;2022-08-01T05:46:10;5.60;;;5.17;;
19291;SDS011;9779;51.756;7.450;2022-08-01T05:48:35;4.77;;;4.47;;
19291;SDS011;9779;51.756;7.450;2022-08-01T05:51:01;4.90;;;4.53;;
19291;SDS011;9779;51.756;7.450;2022-08-01T05:53:26;4.40;;;4.17;;
19291;SDS011;9779;51.756;7.450;2022-08-01T05:55:52;4.40;;;4.13;;
19291;SDS011;9779;51.756;7.450;2022-08-01T05:58:18;4.00;;;3.70;;
19291;SDS011;9779;51.756;7.450;2022-08-01T06:00:43;4.10;;;3.80;;
19291;SDS011;9779;51.756;7.450;2022-08-01T06:03:09;4.00;;;3.70;;
19291;SDS011;9779;51.756;7.450;2022-08-01T06:05:36;3.50;;;3.20;;
19291;SDS011;9779;51.756;7.450;2022-08-01T06:08:01;3.60;;;3.40;;
19291;SDS011;9779;51.756;7.450;2022-08-01T06:10:27;4.17;;;3.87;;
19291;SDS011;9779;51.756;7.450;2022-08-01T06:12:53;3.80;;;3.60;;
19291;SDS011;9779;51.756;7.450;2022-08-01T06:15:19;6.20;;;3.47;;
19291;SDS011;9779;51.756;7.450;2022-08-01T06:17:44;4.07;;;3.40;;
19291;SDS011;9779;51.756;7.450;2022-08-01T06:20:10;3.30;;;3.10;;
19291;SDS011;9779;51.756;7.450;2022-08-01T06:22:35;3.67;;;3.43;;
19291;SDS011;9779;51.756;7.450;2022-08-01T06:25:01;3.63;;;3.43;;
19291;SDS011;9779;51.756;7.450;2022-08-01T06:27:27;3.03;;;2.83;;
19291;SDS011;9779;51.756;7.450;2022-08-01T06:29:52;3.03;;;2.83;;
19291;SDS011;9779;51.756;7.450;2022-08-01T06:32:18;2.93;;;2.73;;
19291;SDS011;9779;51.756;7.450;2022-08-01T06:34:44;2.90;;;2.80;;
19291;SDS011;9779;51.756;7.450;2022-08-01T06:37:10;3.10;;;2.90;;
19291;SDS011;9779;51.756;7.450;2022-08-01T06:39:38;3.70;;;2.90;;
19291;SDS011;9779;51.756;7.450;2022-08-01T06:42:03;2.70;;;2.50;;
19291;SDS011;9779;51.756;7.450;2022-08-01T06:44:29;2.03;;;1.93;;
19291;SDS011;9779;51.756;7.450;2022-08-01T06:46:54;4.20;;;2.00;;
19291;SDS011;9779;51.756;7.450;2022-08-01T06:49:20;2.43;;;2.23;;
19291;SDS011;9779;51.756;7.450;2022-08-01T06:51:45;2.60;;;1.70;;
19291;SDS011;9779;51.756;7.450;2022-08-01T06:54:11;2.33;;;1.90;;
19291;SDS011;9779;51.756;7.450;2022-08-01T06:56:36;2.33;;;2.23;;
19291;SDS011;9779;51.756;7.450;2022-08-01T06:59:02;2.73;;;2.63;;
19291;SDS011;9779;51.756;7.450;2022-08-01T07:01:28;3.00;;;2.80;;
19291;SDS011;9779;51.756;7.450;2022-08-01T07:03:54;3.50;;;3.30;;
19291;SDS011;9779;51.756;7.450;2022-08-01T07:06:21;5.23;;;3.60;;
19291;SDS011;9779;51.756;7.450;2022-08-01T07:08:48;3.90;;;3.60;;
19291;SDS011;9779;51.756;7.450;2022-08-01T07:11:13;4.53;;;3.83;;
19291;SDS011;9779;51.756;7.450;2022-08-01T07:13:39;4.27;;;3.63;;
19291;SDS011;9779;51.756;7.450;2022-08-01T07:16:04;4.27;;;3.97;;
19291;SDS011;9779;51.756;7.450;2022-08-01T07:18:30;5.07;;;4.60;;
19291;SDS011;9779;51.756;7.450;2022-08-01T07:20:56;4.03;;;3.73;;
19291;SDS011;9779;51.756;7.450;2022-08-01T07:23:21;4.57;;;3.60;;
19291;SDS011;9779;51.756;7.450;2022-08-01T07:25:47;4.27;;;3.17;;
19291;SDS011;9779;51.756;7.450;2022-08-01T07:28:14;3.80;;;3.50;;
19291;SDS011;9779;51.756;7.450;2022-08-01T07:30:40;3.87;;;3.37;;
19291;SDS011;9779;51.756;7.450;2022-08-01T07:33:07;3.80;;;3.60;;
19291;SDS011;9779;51.756;7.450;2022-08-01T07:35:33;3.23;;;3.03;;
19291;SDS011;9779;51.756;7.450;2022-08-01T07:37:59;2.83;;;2.63;;
19291;SDS011;9779;51.756;7.450;2022-08-01T07:40:24;3.73;;;2.70;;
19291;SDS011;9779;51.756;7.450;2022-08-01T07:42:50;3.23;;;3.03;;
19291;SDS011;9779;51.756;7.450;2022-08-01T07:45:16;3.13;;;3.03;;
19291;SDS011;9779;51.756;7.450;2022-08-01T07:47:41;4.10;;;3.27;;
19291;SDS011;9779;51.756;7.450;2022-08-01T07:50:07;2.90;;;2.70;;
19291;SDS011;9779;51.756;7.450;2022-08-01T07:52:33;3.53;;;3.23;;
19291;SDS011;9779;51.756;7.450;2022-08-01T07:54:58;4.17;;;3.80;;
19291;SDS011;9779;51.756;7.450;2022-08-01T07:57:24;4.43;;;4.07;;
19291;SDS011;9779;51.756;7.450;2022-08-01T07:59:50;4.97;;;4.57;;
19291;SDS011;9779;51.756;7.450;2022-08-01T08:02:16;6.20;;;4.10;;
19291;SDS011;9779;51.756;7.450;2022-08-01T08:04:41;5.00;;;4.67;;
19291;SDS011;9779;51.756;7.450;2022-08-01T08:07:07;5.20;;;4.80;;
19291;SDS011;9779;51.756;7.450;2022-08-01T08:09:33;5.00;;;4.00;;
19291;SDS011;9779;51.756;7.450;2022-08-01T08:11:58;4.57;;;4.17;;
19291;SDS011;9779;51.756;7.450;2022-08-01T08:14:24;5.37;;;4.37;;
19291;SDS011;9779;51.756;7.450;2022-08-01T08:16:50;11.23;;;4.97;;
19291;SDS011;9779;51.756;7.450;2022-08-01T08:19:16;5.10;;;4.67;;
19291;SDS011;9779;51.756;7.450;2022-08-01T08:21:41;8.87;;;4.33;;
19291;SDS011;9779;51.756;7.450;2022-08-01T08:24:08;5.17;;;4.67;;
19291;SDS011;9779;51.756;7.450;2022-08-01T08:26:46;4.17;;;3.90;;
19291;SDS011;9779;51.756;7.450;2022-08-01T08:29:13;3.83;;;3.63;;
19291;SDS011;9779;51.756;7.450;2022-08-01T08:31:38;4.10;;;3.70;;
19291;SDS011;9779;51.756;7.450;2022-08-01T08:34:04;3.57;;;3.37;;
19291;SDS011;9779;51.756;7.450;2022-08-01T08:36:30;2.87;;;2.77;;
19291;SDS011;9779;51.756;7.450;2022-08-01T08:38:55;7.90;;;3.15;;
19291;SDS011;9779;51.756;7.450;2022-08-01T08:41:21;3.70;;;3.40;;
19291;SDS011;9779;51.756;7.450;2022-08-01T08:43:47;3.17;;;2.97;;
19291;SDS011;9779;51.756;7.450;2022-08-01T08:46:14;3.00;;;2.73;;
19291;SDS011;9779;51.756;7.450;2022-08-01T08:48:41;2.87;;;2.67;;
19291;SDS011;9779;51.756;7.450;2022-08-01T08:51:08;2.47;;;2.27;;
19291;SDS011;9779;51.756;7.450;2022-08-01T08:53:36;2.80;;;2.60;;
19291;SDS011;9779;51.756;7.450;2022-08-01T08:56:06;2.70;;;2.50;;
19291;SDS011;9779;51.756;7.450;2022-08-01T08:58:33;2.43;;;2.30;;
19291;SDS011;9779;51.756;7.450;2022-08-01T09:01:04;3.50;;;2.23;;
19291;SDS011;9779;51.756;7.450;2022-08-01T09:03:31;3.87;;;2.53;;
19291;SDS011;9779;51.756;7.450;2022-08-01T09:05:57;2.35;;;2.25;;
19291;SDS011;9779;51.756;7.450;2022-08-01T09:08:23;3.10;;;1.97;;
19291;SDS011;9779;51.756;7.450;2022-08-01T09:10:48;2.00;;;1.90;;
19291;SDS011;9779;51.756;7.450;2022-08-01T09:13:14;2.13;;;2.03;;
19291;SDS011;9779;51.756;7.450;2022-08-01T09:15:47;2.50;;;2.30;;
19291;SDS011;9779;51.756;7.450;2022-08-01T09:18:42;2.00;;;1.90;;
19291;SDS011;9779;51.756;7.450;2022-08-01T09:23:38;1.53;;;1.43;;
19291;SDS011;9779;51.756;7.450;2022-08-01T09:26:07;1.47;;;0.90;;
19291;SDS011;9779;51.756;7.450;2022-08-01T09:28:34;2.73;;;0.90;;
19291;SDS011;9779;51.756;7.450;2022-08-01T09:31:14;0.80;;;0.80;;
19291;SDS011;9779;51.756;7.450;2022-08-01T09:33:48;0.60;;;0.60;;
19291;SDS011;9779;51.756;7.450;2022-08-01T09:36:15;0.30;;;0.30;;
19291;SDS011;9779;51.756;7.450;2022-08-01T09:38:40;0.20;;;0.20;;
19291;SDS011;9779;51.756;7.450;2022-08-01T09:41:06;0.27;;;0.27;;
19291;SDS011;9779;51.756;7.450;2022-08-01T09:43:32;0.30;;;0.30;;
19291;SDS011;9779;51.756;7.450;2022-08-01T09:45:58;0.20;;;0.20;;
19291;SDS011;9779;51.756;7.450;2022-08-01T09:48:29;1.30;;;0.20;;
19291;SDS011;9779;51.756;7.450;2022-08-01T09:50:57;0.50;;;0.30;;
19291;SDS011;9779;51.756;7.450;2022-08-01T09:53:24;3.83;;;0.30;;
19291;SDS011;9779;51.756;7.450;2022-08-01T09:55:49;1.55;;;0.47;;
19291;SDS011;9779;51.756;7.450;2022-08-01T09:58:17;0.50;;;0.50;;
19291;SDS011;9779;51.756;7.450;2022-08-01T10:00:43;0.47;;;0.47;;
19291;SDS011;9779;51.756;7.450;2022-08-01T10:03:24;0.30;;;0.30;;
19291;SDS011;9779;51.756;7.450;2022-08-01T10:05:51;2.42;;;0.50;;
19291;SDS011;9779;51.756;7.450;2022-08-01T10:08:18;0.40;;;0.40;;
19291;SDS011;9779;51.756;7.450;2022-08-01T10:13:50;0.40;;;0.40;;
19291;SDS011;9779;51.756;7.450;2022-08-01T10:16:17;0.30;;;0.30;;
19291;SDS011;9779;51.756;7.450;2022-08-01T10:18:43;0.40;;;0.30;;
19291;SDS011;9779;51.756;7.450;2022-08-01T10:21:10;0.30;;;0.30;;
19291;SDS011;9779;51.756;7.450;2022-08-01T10:23:37;0.30;;;0.30;;
19291;SDS011;9779;51.756;7.450;2022-08-01T10:26:04;0.60;;;0.30;;
19291;SDS011;9779;51.756;7.450;2022-08-01T10:28:31;0.23;;;0.23;;
19291;SDS011;9779;51.756;7.450;2022-08-01T10:31:00;0.20;;;0.20;;
19291;SDS011;9779;51.756;7.450;2022-08-01T10:33:27;0.40;;;0.20;;
19291;SDS011;9779;51.756;7.450;2022-08-01T10:35:54;0.22;;;0.20;;
19291;SDS011;9779;51.756;7.450;2022-08-01T10:38:20;0.30;;;0.20;;
19291;SDS011;9779;51.756;7.450;2022-08-01T10:40:45;0.20;;;0.20;;
19291;SDS011;9779;51.756;7.450;2022-08-01T10:43:11;0.30;;;0.30;;
19291;SDS011;9779;51.756;7.450;2022-08-01T10:45:39;2.28;;;0.30;;
19291;SDS011;9779;51.756;7.450;2022-08-01T10:48:14;0.30;;;0.30;;
19291;SDS011;9779;51.756;7.450;2022-08-01T10:50:46;0.57;;;0.40;;
19291;SDS011;9779;51.756;7.450;2022-08-01T10:53:18;0.47;;;0.40;;
19291;SDS011;9779;51.756;7.450;2022-08-01T10:56:18;0.43;;;0.40;;
19291;SDS011;9779;51.756;7.450;2022-08-01T10:58:37;0.68;;;0.40;;
19291;SDS011;9779;51.756;7.450;2022-08-01T11:03:42;0.43;;;0.40;;
19291;SDS011;9779;51.756;7.450;2022-08-01T11:06:18;0.40;;;0.40;;
19291;SDS011;9779;51.756;7.450;2022-08-01T11:08:50;0.30;;;0.30;;
19291;SDS011;9779;51.756;7.450;2022-08-01T11:11:18;0.40;;;0.40;;
19291;SDS011;9779;51.756;7.450;2022-08-01T11:16:32;0.67;;;0.67;;
19291;SDS011;9779;51.756;7.450;2022-08-01T11:19:01;0.90;;;0.90;;
19291;SDS011;9779;51.756;7.450;2022-08-01T11:32:33;1.15;;;0.90;;
19291;SDS011;9779;51.756;7.450;2022-08-01T11:35:09;1.27;;;0.70;;
19291;SDS011;9779;51.756;7.450;2022-08-01T11:37:35;1.83;;;0.98;;
19291;SDS011;9779;51.756;7.450;2022-08-01T11:42:47;1.65;;;0.60;;
19291;SDS011;9779;51.756;7.450;2022-08-01T11:45:14;0.73;;;0.70;;
19291;SDS011;9779;51.756;7.450;2022-08-01T11:47:49;1.35;;;0.90;;
19291;SDS011;9779;51.756;7.450;2022-08-01T11:53:06;1.35;;;0.93;;
19291;SDS011;9779;51.756;7.450;2022-08-01T11:55:33;2.38;;;0.80;;
19291;SDS011;9779;51.756;7.450;2022-08-01T11:58:02;1.52;;;0.95;;
19291;SDS011;9779;51.756;7.450;2022-08-01T12:00:30;1.13;;;0.90;;
19291;SDS011;9779;51.756;7.450;2022-08-01T12:02:58;1.25;;;0.85;;
19291;SDS011;9779;51.756;7.450;2022-08-01T12:05:32;0.70;;;0.70;;
19291;SDS011;9779;51.756;7.450;2022-08-01T12:07:59;3.00;;;1.00;;
19291;SDS011;9779;51.756;7.450;2022-08-01T12:10:27;1.25;;;0.50;;
19291;SDS011;9779;51.756;7.450;2022-08-01T12:13:02;3.60;;;0.60;;
19291;SDS011;9779;51.756;7.450;2022-08-01T12:15:33;1.05;;;0.90;;
19291;SDS011;9779;51.756;7.450;2022-08-01T12:18:02;1.52;;;0.90;;
19291;SDS011;9779;51.756;7.450;2022-08-01T12:20:32;3.92;;;0.60;;
19291;SDS011;9779;51.756;7.450;2022-08-01T12:23:00;0.93;;;0.82;;
19291;SDS011;9779;51.756;7.450;2022-08-01T12:25:30;1.02;;;0.70;;
19291;SDS011;9779;51.756;7.450;2022-08-01T12:27:59;2.83;;;1.00;;
19291;SDS011;9779;51.756;7.450;2022-08-01T12:30:29;0.70;;;0.70;;
19291;SDS011;9779;51.756;7.450;2022-08-01T12:33:00;2.58;;;0.70;;
19291;SDS011;9779;51.756;7.450;2022-08-01T12:35:27;6.47;;;1.02;;
19291;SDS011;9779;51.756;7.450;2022-08-01T12:37:57;1.17;;;0.90;;
19291;SDS011;9779;51.756;7.450;2022-08-01T12:40:32;0.85;;;0.60;;
19291;SDS011;9779;51.756;7.450;2022-08-01T12:43:05;2.40;;;0.55;;
19291;SDS011;9779;51.756;7.450;2022-08-01T12:45:39;0.95;;;0.70;;
19291;SDS011;9779;51.756;7.450;2022-08-01T12:48:07;5.15;;;0.90;;
19291;SDS011;9779;51.756;7.450;2022-08-01T12:50:36;1.05;;;0.85;;
19291;SDS011;9779;51.756;7.450;2022-08-01T12:53:03;0.98;;;0.88;;
19291;SDS011;9779;51.756;7.450;2022-08-01T12:55:29;1.70;;;0.88;;
19291;SDS011;9779;51.756;7.450;2022-08-01T12:58:05;1.55;;;1.05;;
19291;SDS011;9779;51.756;7.450;2022-08-01T13:00:33;1.10;;;0.75;;
19291;SDS011;9779;51.756;7.450;2022-08-01T13:03:03;1.80;;;1.08;;
19291;SDS011;9779;51.756;7.450;2022-08-01T13:05:52;2.42;;;0.77;;
19291;SDS011;9779;51.756;7.450;2022-08-01T13:08:20;1.58;;;0.70;;
19291;SDS011;9779;51.756;7.450;2022-08-01T13:11:03;4.47;;;0.63;;
19291;SDS011;9779;51.756;7.450;2022-08-01T13:13:40;0.65;;;0.60;;
19291;SDS011;9779;51.756;7.450;2022-08-01T13:16:12;2.35;;;0.70;;
19291;SDS011;9779;51.756;7.450;2022-08-01T13:18:38;2.55;;;0.55;;
19291;SDS011;9779;51.756;7.450;2022-08-01T13:21:17;0.85;;;0.60;;
19291;SDS011;9779;51.756;7.450;2022-08-01T13:29:09;1.77;;;0.60;;
19291;SDS011;9779;51.756;7.450;2022-08-01T13:31:36;3.03;;;0.60;;
19291;SDS011;9779;51.756;7.450;2022-08-01T13:34:03;1.10;;;0.50;;
19291;SDS011;9779;51.756;7.450;2022-08-01T13:36:29;1.73;;;0.70;;
19291;SDS011;9779;51.756;7.450;2022-08-01T13:38:56;1.20;;;0.65;;
19291;SDS011;9779;51.756;7.450;2022-08-01T13:41:40;2.80;;;0.68;;
19291;SDS011;9779;51.756;7.450;2022-08-01T13:44:06;1.20;;;0.52;;
19291;SDS011;9779;51.756;7.450;2022-08-01T13:46:34;4.20;;;1.00;;
19291;SDS011;9779;51.756;7.450;2022-08-01T13:49:00;1.55;;;0.98;;
19291;SDS011;9779;51.756;7.450;2022-08-01T13:51:26;1.80;;;0.95;;
19291;SDS011;9779;51.756;7.450;2022-08-01T13:53:51;1.73;;;0.93;;
19291;SDS011;9779;51.756;7.450;2022-08-01T13:56:17;1.73;;;0.98;;
19291;SDS011;9779;51.756;7.450;2022-08-01T13:58:43;1.50;;;0.70;;
19291;SDS011;9779;51.756;7.450;2022-08-01T14:01:09;3.55;;;1.10;;
19291;SDS011;9779;51.756;7.450;2022-08-01T14:03:34;1.02;;;0.63;;
19291;SDS011;9779;51.756;7.450;2022-08-01T14:06:00;2.63;;;0.90;;
19291;SDS011;9779;51.756;7.450;2022-08-01T14:08:27;1.15;;;0.77;;
19291;SDS011;9779;51.756;7.450;2022-08-01T14:10:52;0.98;;;0.98;;
19291;SDS011;9779;51.756;7.450;2022-08-01T14:13:21;3.85;;;1.05;;
19291;SDS011;9779;51.756;7.450;2022-08-01T14:15:47;2.05;;;1.08;;
19291;SDS011;9779;51.756;7.450;2022-08-01T14:18:14;1.27;;;0.90;;
19291;SDS011;9779;51.756;7.450;2022-08-01T14:20:40;2.33;;;1.10;;
19291;SDS011;9779;51.756;7.450;2022-08-01T14:23:06;2.20;;;1.00;;
19291;SDS011;9779;51.756;7.450;2022-08-01T14:25:32;1.58;;;1.08;;
19291;SDS011;9779;51.756;7.450;2022-08-01T14:27:57;1.70;;;0.85;;
19291;SDS011;9779;51.756;7.450;2022-08-01T14:30:23;1.23;;;0.85;;
19291;SDS011;9779;51.756;7.450;2022-08-01T14:32:48;1.70;;;1.02;;
19291;SDS011;9779;51.756;7.450;2022-08-01T14:35:14;1.67;;;0.60;;
19291;SDS011;9779;51.756;7.450;2022-08-01T14:37:40;1.40;;;0.90;;
19291;SDS011;9779;51.756;7.450;2022-08-01T14:40:05;1.67;;;0.90;;
19291;SDS011;9779;51.756;7.450;2022-08-01T14:42:34;1.90;;;0.75;;
19291;SDS011;9779;51.756;7.450;2022-08-01T14:45:00;1.30;;;0.80;;
19291;SDS011;9779;51.756;7.450;2022-08-01T14:47:26;3.42;;;1.00;;
19291;SDS011;9779;51.756;7.450;2022-08-01T14:49:51;1.55;;;1.02;;
19291;SDS011;9779;51.756;7.450;2022-08-01T14:52:17;1.58;;;0.80;;
19291;SDS011;9779;51.756;7.450;2022-08-01T14:54:43;7.20;;;0.80;;
19291;SDS011;9779;51.756;7.450;2022-08-01T14:57:08;1.95;;;0.57;;
19291;SDS011;9779;51.756;7.450;2022-08-01T14:59:34;1.20;;;0.95;;
19291;SDS011;9779;51.756;7.450;2022-08-01T15:02:00;2.58;;;1.10;;
19291;SDS011;9779;51.756;7.450;2022-08-01T15:04:26;8.45;;;0.98;;
19291;SDS011;9779;51.756;7.450;2022-08-01T15:06:51;1.48;;;0.95;;
19291;SDS011;9779;51.756;7.450;2022-08-01T15:09:17;2.42;;;0.95;;
19291;SDS011;9779;51.756;7.450;2022-08-01T15:11:43;2.03;;;1.00;;
19291;SDS011;9779;51.756;7.450;2022-08-01T15:14:08;3.78;;;0.60;;
19291;SDS011;9779;51.756;7.450;2022-08-01T15:16:52;3.63;;;0.60;;
19291;SDS011;9779;51.756;7.450;2022-08-01T15:19:18;2.13;;;0.60;;
19291;SDS011;9779;51.756;7.450;2022-08-01T15:21:43;3.30;;;0.75;;
19291;SDS011;9779;51.756;7.450;2022-08-01T15:24:09;2.72;;;1.02;;
19291;SDS011;9779;51.756;7.450;2022-08-01T15:26:35;0.93;;;0.45;;
19291;SDS011;9779;51.756;7.450;2022-08-01T15:29:00;4.57;;;0.98;;
19291;SDS011;9779;51.756;7.450;2022-08-01T15:31:26;2.95;;;0.63;;
19291;SDS011;9779;51.756;7.450;2022-08-01T15:33:52;1.88;;;0.88;;
19291;SDS011;9779;51.756;7.450;2022-08-01T15:36:17;4.65;;;0.65;;
19291;SDS011;9779;51.756;7.450;2022-08-01T15:38:43;3.58;;;1.33;;
19291;SDS011;9779;51.756;7.450;2022-08-01T15:41:08;4.38;;;0.95;;
19291;SDS011;9779;51.756;7.450;2022-08-01T15:43:34;1.52;;;0.60;;
19291;SDS011;9779;51.756;7.450;2022-08-01T15:45:59;1.63;;;0.80;;
19291;SDS011;9779;51.756;7.450;2022-08-01T15:48:26;3.05;;;0.85;;